Main page
METAR-TAF:

METAR-TAF

Airports :

Sukkur Airport

Sukkur, Pakistan

latitude: 27-43-19N, longitude: 068-47-31E, elevation: 60 m

Current weather observation

The report was made 52 minutes ago, at 17:00 UTC
Wind 4 kt from the Northeast
Temperature 19°C
Humidity 68%
Pressure 1016 hPa
Visibility: 3500 m
haze

METAR: OPSK 151700Z 05004KT 3500 HZ NSC 19/13 Q1016 NOSIG

Time: 22:52 (17:52 UTC)

Forecast

The report was made 2 hours and 22 minutes ago, at 15:30 UTC
Forecast valid from 15 at 18 UTC to 16 at 18 UTC
Wind 3 kt from variable directions
Visibility: 2500 m
smoke
Temporary
from 16 at 01 UTC to 16 at 05 UTC
Wind kt from the North
Visibility: 0800 m
fog
From UTC
Wind 5 kt from the South
Visibility: 4000 m
haze

TAF: OPSK 151530Z 1518/1618 VRB03KT 2500 FU NSC TEMPO 1601/1605 00000KT 0800 FG VV/// FM 160800 18005KT 4000 HZ NSC

Weather observations and forecasts of more than 4000 airports (METAR and TAF reports).

The available stations are represented by yellow and red dots on the map.

Hover mouse over dot to see the name of the station.

Then click to see weather observations and forecasts.

To change the map : click on the green buttons with a black cross to zoom in, on the green button with a dash to zoom out, or on the green arrows for adjacent maps.


METAR-TAF: